Upstream stations:
Downstream station:
SHEF ID: BXTK1 SPRING R NR BAXTER SPRINGS, KS
STATION TYPE:
PRECIP STAGE RIV-FLOW BAT-LOAD
in ft cfs volt
Ccp-Rev Ccp-Rev Ccp-Rev Ccp-Rev
(US/Central)
04/06 00:00 0.00 4.49 2751 12.77
04/06 01:00 0.00 4.48 2725 12.71
04/06 02:00 0.00 4.47 2700 12.71
04/06 03:00 0.00 4.47 2700 12.71
04/06 04:00 0.00 4.46 2675 12.65
04/06 05:00 0.00 4.45 2650 12.65
04/06 06:00 0.00 4.45 2650 12.65
04/06 07:00 0.00 4.44 2625 12.60
04/06 08:00 0.00 4.44 2625 12.60
04/06 09:00 0.00 4.44 2625 13.53
04/06 10:00 0.00 4.43 2600 14.06
04/06 11:00 0.00 4.43 2600 14.47
04/06 12:00 0.00 4.43 2600 14.41
04/06 13:00 0.00 4.43 2600 14.35
04/06 14:00 0.00 4.31 2310 14.30
04/06 15:00 0.00 4.41 2550 14.24
04/06 16:00 0.00 4.41 2550 14.12
04/06 17:00 0.00 4.40 2526 14.12
04/06 18:00 0.00 4.40 2526 13.94
04/06 19:00 0.00 4.38 2477 13.59
04/06 20:00 0.00 4.38 2477 12.83
04/06 21:00 0.00 4.38 2477 12.83
04/06 22:00 0.00 4.38 2477 12.83
04/06 23:00 ---- ---- ---- ----